createdAt,value
2022-12-09T00:02:20.529Z,7.50
2022-12-09T00:07:23.952Z,7.51
2022-12-09T00:12:26.961Z,7.61
2022-12-09T00:17:30.683Z,7.74
2022-12-09T00:22:34.029Z,7.74
2022-12-09T00:27:37.272Z,7.81
2022-12-09T00:32:40.593Z,7.81
2022-12-09T00:37:43.830Z,7.73
2022-12-09T00:42:47.089Z,7.63
2022-12-09T00:47:50.460Z,7.74
2022-12-09T00:52:53.661Z,7.85
2022-12-09T00:57:56.863Z,7.92
2022-12-09T01:03:00.354Z,7.99
2022-12-09T01:08:03.778Z,7.63
2022-12-09T01:13:07.253Z,5.75
2022-12-09T01:18:12.245Z,5.01
2022-12-09T01:23:15.440Z,5.98
2022-12-09T01:28:18.516Z,6.61
2022-12-09T01:33:21.594Z,6.98
2022-12-09T01:38:25.127Z,7.23
2022-12-09T01:43:28.849Z,7.46
2022-12-09T01:48:42.366Z,7.62
2022-12-09T01:53:47.879Z,7.65
2022-12-09T01:58:54.308Z,7.61
2022-12-09T02:03:57.905Z,7.67
2022-12-09T02:09:01.433Z,7.78
2022-12-09T02:14:10.202Z,7.84
2022-12-09T02:19:41.399Z,7.92
2022-12-09T02:25:02.745Z,8.03
2022-12-09T02:30:12.429Z,8.04
2022-12-09T02:35:23.893Z,7.97
2022-12-09T02:40:43.227Z,7.86
2022-12-09T02:45:47.609Z,7.71
2022-12-09T02:50:53.097Z,7.68
2022-12-09T02:55:57.154Z,7.69
2022-12-09T03:01:00.620Z,7.68
2022-12-09T03:06:09.662Z,7.62
2022-12-09T03:11:16.046Z,7.61
2022-12-09T03:16:26.105Z,7.64
2022-12-09T03:21:32.967Z,7.57
2022-12-09T03:26:37.967Z,7.38
2022-12-09T03:31:42.232Z,7.27
2022-12-09T03:36:48.618Z,7.25
2022-12-09T03:41:56.799Z,7.35
2022-12-09T03:47:00.310Z,7.24
2022-12-09T03:52:03.555Z,7.35
2022-12-09T03:57:15.491Z,7.49
2022-12-09T04:02:22.431Z,7.59
2022-12-09T04:07:25.530Z,7.70
2022-12-09T04:12:28.402Z,7.70
2022-12-09T04:17:31.403Z,7.72
2022-12-09T04:22:34.778Z,7.77
2022-12-09T04:27:38.263Z,7.61
2022-12-09T04:32:41.446Z,7.54
2022-12-09T04:37:44.613Z,7.34
2022-12-09T04:42:47.573Z,7.22
2022-12-09T04:47:50.989Z,7.20
2022-12-09T04:52:54.090Z,7.23
2022-12-09T04:57:57.117Z,7.27
2022-12-09T05:03:00.352Z,7.13
2022-12-09T05:08:03.946Z,7.07
2022-12-09T05:13:07.319Z,7.18
2022-12-09T05:18:11.037Z,7.28
2022-12-09T05:23:14.379Z,7.29
2022-12-09T05:28:17.911Z,7.32
2022-12-09T05:33:21.072Z,7.32
2022-12-09T05:38:25.260Z,7.09
2022-12-09T05:43:28.382Z,7.04
2022-12-09T05:48:32.007Z,6.87
2022-12-09T05:53:36.706Z,6.88
2022-12-09T05:58:39.835Z,6.91
2022-12-09T06:03:43.887Z,7.01
2022-12-09T06:08:47.355Z,7.10
2022-12-09T06:13:51.339Z,7.19
2022-12-09T06:18:55.417Z,7.27
2022-12-09T06:23:58.599Z,7.19
2022-12-09T06:29:01.796Z,6.98
2022-12-09T06:34:05.389Z,6.93
2022-12-09T06:39:11.044Z,6.83
2022-12-09T06:44:19.908Z,6.74
2022-12-09T06:49:24.816Z,6.82
2022-12-09T06:54:28.441Z,6.90
2022-12-09T06:59:31.647Z,7.00
2022-12-09T07:04:35.268Z,7.11
2022-12-09T07:09:39.817Z,7.23
2022-12-09T07:14:43.116Z,7.35
2022-12-09T07:19:47.383Z,7.30
2022-12-09T07:24:51.629Z,7.12
2022-12-09T07:29:54.871Z,7.05
2022-12-09T07:34:58.610Z,6.85
2022-12-09T07:40:01.899Z,6.69
2022-12-09T07:45:06.173Z,6.66
2022-12-09T07:50:10.489Z,6.64
2022-12-09T07:55:14.230Z,6.60
2022-12-09T08:00:18.873Z,6.59
2022-12-09T08:05:22.039Z,6.61
2022-12-09T08:10:26.271Z,6.55
2022-12-09T08:15:29.778Z,6.67
2022-12-09T08:20:33.641Z,6.75
2022-12-09T08:25:36.847Z,6.94
2022-12-09T08:30:40.634Z,6.96
2022-12-09T08:35:44.523Z,6.67
2022-12-09T08:40:47.645Z,6.50
2022-12-09T08:45:50.958Z,6.55
2022-12-09T08:50:54.850Z,6.69
2022-12-09T08:55:58.338Z,6.81
2022-12-09T09:01:01.737Z,6.79
2022-12-09T09:06:10.769Z,6.77
2022-12-09T09:11:20.630Z,6.83
2022-12-09T09:16:26.659Z,6.87
2022-12-09T09:21:30.534Z,6.95
2022-12-09T09:26:33.731Z,6.54
2022-12-09T09:31:37.372Z,6.25
2022-12-09T09:36:41.405Z,6.37
2022-12-09T09:42:07.453Z,6.52
2022-12-09T09:47:18.854Z,6.53
2022-12-09T09:52:25.371Z,6.61
2022-12-09T09:57:50.501Z,6.83
2022-12-09T10:03:03.772Z,7.04
2022-12-09T10:08:22.131Z,7.12
2022-12-09T10:13:47.243Z,7.19
2022-12-09T10:18:58.637Z,7.23
2022-12-09T10:24:38.781Z,7.16
2022-12-09T10:29:49.363Z,7.31
2022-12-09T10:34:52.711Z,7.36
2022-12-09T10:40:12.178Z,7.50
2022-12-09T10:45:15.791Z,6.30
2022-12-09T10:50:39.648Z,6.02
2022-12-09T10:55:50.347Z,6.17
2022-12-09T11:01:12.075Z,6.48
2022-12-09T11:06:22.045Z,6.93
2022-12-09T11:11:45.528Z,7.04
2022-12-09T11:16:51.313Z,7.01
2022-12-09T11:22:14.515Z,7.26
2022-12-09T11:27:31.100Z,7.21
2022-12-09T11:32:51.203Z,7.17
2022-12-09T11:37:55.013Z,6.83
2022-12-09T11:42:58.220Z,6.37
2022-12-09T11:48:35.008Z,6.48
2022-12-09T11:53:41.384Z,6.00
2022-12-09T11:58:51.586Z,6.06
2022-12-09T12:04:01.807Z,5.96
2022-12-09T12:09:21.553Z,6.09
2022-12-09T12:14:28.807Z,6.22
2022-12-09T12:19:35.535Z,6.47
2022-12-09T12:25:00.787Z,6.20
2022-12-09T12:30:14.646Z,6.22
2022-12-09T12:35:26.971Z,6.31
2022-12-09T12:40:39.190Z,6.62
2022-12-09T12:46:19.345Z,6.52
2022-12-09T12:51:31.492Z,6.40
2022-12-09T12:56:42.386Z,6.52
2022-12-09T13:02:18.588Z,6.62
2022-12-09T13:07:36.731Z,6.83
2022-12-09T13:12:56.869Z,6.64
2022-12-09T13:18:05.269Z,6.65
2022-12-09T13:23:29.472Z,6.57
2022-12-09T13:28:51.625Z,6.57
2022-12-09T13:34:22.181Z,6.61
2022-12-09T13:39:40.855Z,6.73
2022-12-09T13:44:46.552Z,6.78
2022-12-09T13:49:59.925Z,6.69
2022-12-09T13:55:02.979Z,6.60
2022-12-09T14:00:15.608Z,6.62
2022-12-09T14:05:22.721Z,6.76
2022-12-09T14:10:44.563Z,6.84
2022-12-09T14:16:08.297Z,6.70
2022-12-09T14:21:20.373Z,6.53
2022-12-09T14:26:47.911Z,6.51
2022-12-09T14:31:58.609Z,6.47
2022-12-09T14:37:31.650Z,6.59
2022-12-09T14:42:56.063Z,6.43
2022-12-09T14:47:59.687Z,6.08
2022-12-09T14:53:05.039Z,6.06
2022-12-09T14:58:20.137Z,6.22
2022-12-09T15:03:35.460Z,6.38
2022-12-09T15:08:42.016Z,6.59
2022-12-09T15:13:51.702Z,6.60
2022-12-09T15:18:55.403Z,6.61
2022-12-09T15:24:00.044Z,6.43
2022-12-09T15:29:05.717Z,6.25
2022-12-09T15:34:15.002Z,6.27
2022-12-09T15:39:29.428Z,6.42
2022-12-09T15:44:49.554Z,6.35
2022-12-09T15:49:59.999Z,6.13
2022-12-09T15:55:07.938Z,6.07
2022-12-09T16:00:12.319Z,6.02
2022-12-09T16:05:22.864Z,5.95
2022-12-09T16:10:27.202Z,6.21
2022-12-09T16:15:51.799Z,6.23
2022-12-09T16:21:03.950Z,6.22
2022-12-09T16:26:07.719Z,6.19
2022-12-09T16:31:19.836Z,6.22
2022-12-09T16:36:31.397Z,6.16
2022-12-09T16:41:52.956Z,6.09
2022-12-09T16:47:13.148Z,6.12
2022-12-09T16:52:24.467Z,6.12
2022-12-09T16:57:27.564Z,6.14
2022-12-09T17:02:36.472Z,6.25
2022-12-09T17:07:39.670Z,6.36
2022-12-09T17:12:43.673Z,6.29
2022-12-09T17:17:48.791Z,6.38
2022-12-09T17:22:52.217Z,6.44
2022-12-09T17:27:56.437Z,6.43
2022-12-09T17:33:00.088Z,6.47
2022-12-09T17:38:03.391Z,6.50
2022-12-09T17:43:06.496Z,6.50
2022-12-09T17:48:09.503Z,6.47
2022-12-09T17:53:12.610Z,6.44
2022-12-09T17:58:15.613Z,6.40
2022-12-09T18:03:39.264Z,6.17
2022-12-09T18:08:41.686Z,5.90
2022-12-09T18:13:45.015Z,5.71
2022-12-09T18:18:48.493Z,5.50
2022-12-09T18:23:51.643Z,5.51
2022-12-09T18:28:58.128Z,5.59
2022-12-09T18:34:01.239Z,5.69
2022-12-09T18:39:05.236Z,5.65
2022-12-09T18:44:11.921Z,5.28
2022-12-09T18:49:21.318Z,5.15
2022-12-09T18:54:29.068Z,5.16
2022-12-09T18:59:32.313Z,5.08
2022-12-09T19:04:35.366Z,5.38
2022-12-09T19:09:40.198Z,5.73
2022-12-09T19:14:43.207Z,5.77
2022-12-09T19:19:47.465Z,5.56
2022-12-09T19:24:50.716Z,5.60
2022-12-09T19:29:54.057Z,5.72
2022-12-09T19:34:57.282Z,5.79
2022-12-09T19:40:00.497Z,5.57
2022-12-09T19:45:07.674Z,5.62
2022-12-09T19:50:13.783Z,5.60
2022-12-09T19:55:16.795Z,5.45
2022-12-09T20:00:20.107Z,5.36
2022-12-09T20:05:23.314Z,5.41
2022-12-09T20:10:26.452Z,5.68
2022-12-09T20:15:29.425Z,5.79
2022-12-09T20:20:36.420Z,5.87
2022-12-09T20:25:39.946Z,6.07
2022-12-09T20:30:43.052Z,6.03
2022-12-09T20:35:46.270Z,5.88
2022-12-09T20:40:49.581Z,5.76
2022-12-09T20:45:52.900Z,5.62
2022-12-09T20:50:56.075Z,5.17
2022-12-09T20:56:00.093Z,5.03
2022-12-09T21:01:07.795Z,5.07
2022-12-09T21:06:12.498Z,5.09
2022-12-09T21:11:19.694Z,5.10
2022-12-09T21:16:25.624Z,5.11
2022-12-09T21:21:31.664Z,5.20
2022-12-09T21:26:34.657Z,5.33
2022-12-09T21:31:41.035Z,5.42
2022-12-09T21:36:44.592Z,5.32
2022-12-09T21:41:47.771Z,5.14
2022-12-09T21:46:50.983Z,5.18
2022-12-09T21:51:53.993Z,4.97
2022-12-09T21:56:56.996Z,4.86
2022-12-09T22:02:00.978Z,4.62
2022-12-09T22:07:04.135Z,4.70
2022-12-09T22:12:07.552Z,4.70
2022-12-09T22:17:10.639Z,4.77
2022-12-09T22:22:13.558Z,4.64
2022-12-09T22:27:16.671Z,4.68
2022-12-09T22:32:19.784Z,4.90
2022-12-09T22:37:43.048Z,4.73
2022-12-09T22:42:47.093Z,4.64
2022-12-09T22:47:49.987Z,4.66
2022-12-09T22:52:53.005Z,4.09
2022-12-09T22:57:56.934Z,3.59
2022-12-09T23:03:00.017Z,3.58
2022-12-09T23:08:03.900Z,3.27
2022-12-09T23:13:07.997Z,3.33
2022-12-09T23:18:11.001Z,3.69
2022-12-09T23:23:14.213Z,3.66
2022-12-09T23:28:17.940Z,3.51
2022-12-09T23:33:21.355Z,3.56
2022-12-09T23:38:24.357Z,3.90
2022-12-09T23:43:31.158Z,4.00
2022-12-09T23:48:34.674Z,3.96
2022-12-09T23:53:38.908Z,3.79
2022-12-09T23:58:42.819Z,4.24
